createdAt,value
2023-05-01T00:04:00.810Z,4.73
2023-05-01T00:09:03.055Z,4.72
2023-05-01T00:14:04.725Z,4.79
2023-05-01T00:19:06.437Z,4.39
2023-05-01T00:24:08.141Z,4.26
2023-05-01T00:29:09.927Z,4.52
2023-05-01T00:34:11.985Z,4.42
2023-05-01T00:39:13.554Z,4.34
2023-05-01T00:44:15.553Z,4.52
2023-05-01T00:49:18.149Z,4.55
2023-05-01T00:54:21.049Z,4.19
2023-05-01T00:59:22.845Z,4.06
2023-05-01T01:04:24.755Z,4.27
2023-05-01T01:09:48.527Z,4.20
2023-05-01T01:15:15.837Z,4.08
2023-05-01T01:20:36.352Z,3.88
2023-05-01T01:26:02.815Z,4.03
2023-05-01T01:31:07.257Z,3.98
2023-05-01T01:36:33.396Z,3.60
2023-05-01T01:41:37.216Z,3.79
2023-05-01T01:46:42.692Z,3.76
2023-05-01T01:51:46.694Z,3.65
2023-05-01T01:56:49.606Z,3.43
2023-05-01T02:01:53.669Z,3.44
2023-05-01T02:06:59.912Z,3.78
2023-05-01T02:12:05.488Z,3.46
2023-05-01T02:17:09.409Z,3.21
2023-05-01T02:22:12.205Z,3.36
2023-05-01T02:27:20.338Z,3.57
2023-05-01T02:32:24.010Z,3.45
2023-05-01T02:37:28.082Z,3.16
2023-05-01T02:42:30.139Z,3.35
2023-05-01T02:47:35.659Z,3.19
2023-05-01T02:52:38.053Z,3.16
2023-05-01T02:57:59.806Z,3.00
2023-05-01T03:03:01.540Z,3.15
2023-05-01T03:08:04.192Z,3.16
2023-05-01T03:13:05.821Z,2.91
2023-05-01T03:18:07.898Z,3.04
2023-05-01T03:23:09.998Z,2.93
2023-05-01T03:28:11.650Z,2.76
2023-05-01T03:33:13.740Z,2.68
2023-05-01T03:38:15.922Z,2.79
2023-05-01T03:43:44.503Z,2.80
2023-05-01T03:49:04.903Z,2.96
2023-05-01T03:54:10.596Z,2.83
2023-05-01T03:59:29.618Z,2.75
2023-05-01T04:04:31.564Z,2.68
2023-05-01T04:09:33.783Z,2.63
2023-05-01T04:14:35.712Z,2.77
2023-05-01T04:19:37.912Z,2.84
2023-05-01T04:24:39.600Z,2.94
2023-05-01T04:29:41.866Z,3.10
2023-05-01T04:34:46.988Z,3.32
2023-05-01T04:39:48.856Z,3.40
2023-05-01T04:44:52.363Z,3.80
2023-05-01T04:49:55.692Z,4.28
2023-05-01T04:54:58.010Z,4.11
2023-05-01T05:00:03.529Z,4.22
2023-05-01T05:05:08.230Z,4.46
2023-05-01T05:10:10.287Z,4.72
2023-05-01T05:15:13.205Z,5.16
2023-05-01T05:20:15.767Z,5.19
2023-05-01T05:25:17.719Z,5.37
2023-05-01T05:30:19.563Z,6.07
2023-05-01T05:35:22.214Z,6.41
2023-05-01T05:40:23.999Z,6.60
2023-05-01T05:45:34.411Z,6.96
2023-05-01T05:50:36.836Z,7.19
2023-05-01T05:55:40.462Z,7.64
2023-05-01T06:00:43.039Z,7.86
2023-05-01T06:05:45.431Z,8.54
2023-05-01T06:10:47.717Z,9.22
2023-05-01T06:15:50.051Z,9.65
2023-05-01T06:20:52.528Z,9.74
2023-05-01T06:25:54.666Z,9.65
2023-05-01T06:30:56.410Z,9.94
2023-05-01T06:36:00.704Z,10.32
2023-05-01T06:41:02.440Z,10.43
2023-05-01T06:46:05.187Z,10.82
2023-05-01T06:51:06.853Z,11.55
2023-05-01T06:56:09.007Z,11.84
2023-05-01T07:01:11.088Z,12.21
2023-05-01T07:06:12.793Z,12.30
2023-05-01T07:11:14.527Z,12.93
2023-05-01T07:16:16.211Z,13.35
2023-05-01T07:21:17.994Z,13.32
2023-05-01T07:26:19.858Z,12.98
2023-05-01T07:31:22.596Z,13.58
2023-05-01T07:36:24.399Z,13.56
2023-05-01T07:41:26.685Z,13.76
2023-05-01T07:46:28.486Z,13.78
2023-05-01T07:51:30.862Z,13.78
2023-05-01T07:56:32.653Z,14.09
2023-05-01T08:01:34.923Z,14.22
2023-05-01T08:06:36.636Z,14.55
2023-05-01T08:11:38.309Z,14.86
2023-05-01T08:16:40.028Z,15.19
2023-05-01T08:21:41.734Z,15.14
2023-05-01T08:26:43.727Z,15.21
2023-05-01T08:31:45.613Z,15.46
2023-05-01T08:36:47.360Z,15.97
2023-05-01T08:41:50.002Z,15.91
2023-05-01T08:47:12.808Z,15.87
2023-05-01T08:52:15.471Z,15.74
2023-05-01T08:57:17.350Z,16.28
2023-05-01T09:02:21.738Z,17.01
2023-05-01T09:07:23.814Z,16.48
2023-05-01T09:12:26.904Z,17.06
2023-05-01T09:17:31.721Z,17.27
2023-05-01T09:22:34.760Z,16.87
2023-05-01T09:27:38.037Z,17.06
2023-05-01T09:32:41.465Z,17.30
2023-05-01T09:37:49.930Z,17.89
2023-05-01T09:42:53.228Z,17.75
2023-05-01T09:48:10.915Z,17.85
2023-05-01T09:53:13.720Z,18.15
2023-05-01T09:58:27.628Z,18.23
2023-05-01T10:03:36.948Z,18.74
2023-05-01T10:08:47.484Z,18.83
2023-05-01T10:14:09.684Z,18.91
2023-05-01T10:19:13.268Z,19.00
2023-05-01T10:24:17.220Z,18.54
2023-05-01T10:29:23.334Z,19.16
2023-05-01T10:34:28.411Z,19.00
2023-05-01T10:39:34.822Z,18.82
2023-05-01T10:44:37.379Z,18.98
2023-05-01T10:50:09.289Z,19.26
2023-05-01T10:55:36.442Z,19.13
2023-05-01T11:00:38.234Z,18.69
2023-05-01T11:06:05.023Z,18.48
2023-05-01T11:11:26.983Z,18.89
2023-05-01T11:16:38.520Z,19.18
2023-05-01T11:21:41.932Z,19.40
2023-05-01T11:26:44.523Z,19.25
2023-05-01T11:31:48.584Z,19.12
2023-05-01T11:36:51.870Z,20.20
2023-05-01T11:42:09.604Z,20.60
2023-05-01T11:47:11.605Z,20.87
2023-05-01T11:52:13.265Z,21.02
2023-05-01T11:57:14.988Z,20.08
2023-05-01T12:02:20.582Z,20.31
2023-05-01T12:07:23.644Z,20.16
2023-05-01T12:12:25.403Z,20.41
2023-05-01T12:17:28.383Z,20.65
2023-05-01T12:22:30.382Z,20.60
2023-05-01T12:27:32.952Z,20.70
2023-05-01T12:32:34.794Z,20.69
2023-05-01T12:37:36.969Z,21.08
2023-05-01T12:42:38.779Z,21.11
2023-05-01T12:47:40.573Z,20.90
2023-05-01T12:52:42.678Z,20.58
2023-05-01T12:57:54.578Z,20.82
2023-05-01T13:03:04.202Z,20.48
2023-05-01T13:08:06.134Z,20.45
2023-05-01T13:13:07.853Z,20.44
2023-05-01T13:18:09.640Z,20.64
2023-05-01T13:23:13.064Z,21.35
2023-05-01T13:28:19.206Z,21.22
2023-05-01T13:33:20.727Z,21.01
2023-05-01T13:38:24.623Z,20.55
2023-05-01T13:43:26.260Z,20.68
2023-05-01T13:48:27.909Z,20.40
2023-05-01T13:53:30.512Z,20.11
2023-05-01T13:58:33.745Z,20.00
2023-05-01T14:03:40.821Z,20.40
2023-05-01T14:08:43.320Z,20.44
2023-05-01T14:13:46.963Z,20.11
2023-05-01T14:18:48.766Z,19.94
2023-05-01T14:23:53.130Z,20.19
2023-05-01T14:28:55.565Z,19.93
2023-05-01T14:34:06.286Z,19.96
2023-05-01T14:39:08.495Z,20.06
2023-05-01T14:44:17.896Z,19.94
2023-05-01T14:49:21.699Z,19.67
2023-05-01T14:54:23.357Z,19.55
2023-05-01T14:59:25.003Z,19.44
2023-05-01T15:04:26.710Z,19.25
2023-05-01T15:09:28.325Z,19.23
2023-05-01T15:14:29.954Z,19.23
2023-05-01T15:19:32.533Z,19.11
2023-05-01T15:24:34.195Z,19.20
2023-05-01T15:29:35.893Z,19.31
2023-05-01T15:34:37.974Z,19.18
2023-05-01T15:39:40.359Z,19.22
2023-05-01T15:44:42.163Z,19.10
2023-05-01T15:49:43.842Z,19.02
2023-05-01T15:54:48.563Z,19.14
2023-05-01T15:59:53.913Z,19.08
2023-05-01T16:04:55.615Z,19.18
2023-05-01T16:09:58.204Z,19.18
2023-05-01T16:15:04.546Z,19.00
2023-05-01T16:20:10.964Z,18.93
2023-05-01T16:25:12.821Z,18.80
2023-05-01T16:30:14.807Z,18.71
2023-05-01T16:35:18.344Z,18.52
2023-05-01T16:40:21.577Z,18.54
2023-05-01T16:45:23.301Z,18.28
2023-05-01T16:50:25.051Z,18.26
2023-05-01T16:55:26.810Z,18.21
2023-05-01T17:00:29.387Z,18.19
2023-05-01T17:05:31.010Z,18.02
2023-05-01T17:10:32.648Z,17.89
2023-05-01T17:15:34.285Z,17.69
2023-05-01T17:20:36.233Z,17.58
2023-05-01T17:25:37.926Z,17.52
2023-05-01T17:30:39.587Z,17.47
2023-05-01T17:35:41.417Z,17.48
2023-05-01T17:40:43.241Z,17.34
2023-05-01T17:45:45.514Z,17.19
2023-05-01T17:50:47.401Z,17.11
2023-05-01T17:55:49.098Z,16.97
2023-05-01T18:00:51.058Z,16.81
2023-05-01T18:05:52.744Z,16.71
2023-05-01T18:10:54.351Z,16.70
2023-05-01T18:15:56.412Z,16.77
2023-05-01T18:20:58.345Z,16.55
2023-05-01T18:26:00.076Z,16.48
2023-05-01T18:31:01.918Z,16.44
2023-05-01T18:36:04.460Z,16.24
2023-05-01T18:41:06.207Z,16.18
2023-05-01T18:46:07.823Z,16.09
2023-05-01T18:51:09.743Z,16.12
2023-05-01T18:56:11.407Z,16.04
2023-05-01T19:01:13.071Z,15.99
2023-05-01T19:06:14.730Z,16.02
2023-05-01T19:11:16.533Z,15.91
2023-05-01T19:16:18.193Z,15.83
2023-05-01T19:21:20.128Z,15.95
2023-05-01T19:26:23.195Z,16.06
2023-05-01T19:31:25.309Z,16.00
2023-05-01T19:36:27.020Z,15.89
2023-05-01T19:41:28.846Z,15.92
2023-05-01T19:46:30.653Z,15.62
2023-05-01T19:51:32.713Z,15.73
2023-05-01T19:56:34.622Z,15.50
2023-05-01T20:01:36.879Z,15.33
2023-05-01T20:06:38.629Z,15.22
2023-05-01T20:11:40.286Z,15.17
2023-05-01T20:16:41.921Z,15.30
2023-05-01T20:21:43.720Z,15.16
2023-05-01T20:26:45.334Z,15.01
2023-05-01T20:31:48.646Z,15.04
2023-05-01T20:36:50.396Z,15.17
2023-05-01T20:41:52.021Z,15.01
2023-05-01T20:46:53.899Z,15.02
2023-05-01T20:51:56.817Z,14.84
2023-05-01T20:56:58.684Z,14.60
2023-05-01T21:02:04.517Z,14.55
2023-05-01T21:07:06.133Z,14.44
2023-05-01T21:12:07.731Z,14.12
2023-05-01T21:17:09.637Z,14.11
2023-05-01T21:22:20.877Z,14.16
2023-05-01T21:27:24.225Z,14.10
2023-05-01T21:32:34.652Z,14.06
2023-05-01T21:37:37.296Z,13.96
2023-05-01T21:42:40.001Z,13.84
2023-05-01T21:47:44.421Z,13.79
2023-05-01T21:52:48.007Z,13.70
2023-05-01T21:57:50.261Z,13.61
2023-05-01T22:02:52.097Z,13.52
2023-05-01T22:07:54.231Z,13.61
2023-05-01T22:12:55.981Z,13.48
2023-05-01T22:17:57.652Z,13.39
2023-05-01T22:22:59.247Z,13.37
2023-05-01T22:28:04.187Z,13.25
2023-05-01T22:33:05.893Z,13.22
2023-05-01T22:38:08.258Z,13.29
2023-05-01T22:43:10.408Z,13.17
2023-05-01T22:48:12.421Z,13.25
2023-05-01T22:53:14.206Z,13.29
2023-05-01T22:58:15.831Z,13.26
2023-05-01T23:03:17.542Z,13.20
2023-05-01T23:08:19.226Z,13.26
2023-05-01T23:13:23.533Z,13.27
2023-05-01T23:18:31.647Z,13.19
2023-05-01T23:23:35.247Z,13.09
2023-05-01T23:28:44.096Z,13.11
2023-05-01T23:33:45.741Z,13.04
2023-05-01T23:38:47.747Z,13.05
2023-05-01T23:43:49.390Z,13.05
2023-05-01T23:48:51.122Z,13.14
2023-05-01T23:53:52.679Z,13.04
2023-05-01T23:58:54.393Z,12.87
